createdAt,value
2022-11-27T00:02:18.989Z,136
2022-11-27T00:04:50.417Z,129
2022-11-27T00:07:20.949Z,133
2022-11-27T00:09:51.623Z,142
2022-11-27T00:12:22.319Z,152
2022-11-27T00:14:55.532Z,146
2022-11-27T00:17:23.918Z,142
2022-11-27T00:19:54.672Z,151
2022-11-27T00:22:25.676Z,147
2022-11-27T00:24:57.047Z,153
2022-11-27T00:27:28.128Z,157
2022-11-27T00:30:00.041Z,151
2022-11-27T00:32:31.257Z,150
2022-11-27T00:35:01.706Z,156
2022-11-27T00:37:32.591Z,149
2022-11-27T00:40:03.311Z,136
2022-11-27T00:42:37.584Z,141
2022-11-27T00:45:08.429Z,151
2022-11-27T00:47:39.265Z,149
2022-11-27T00:50:09.940Z,151
2022-11-27T00:52:40.536Z,154
2022-11-27T00:55:11.226Z,154
2022-11-27T00:57:41.904Z,159
2022-11-27T01:00:12.460Z,156
2022-11-27T01:02:43.547Z,144
2022-11-27T01:05:14.511Z,142
2022-11-27T01:07:48.358Z,140
2022-11-27T01:10:19.438Z,155
2022-11-27T01:12:50.403Z,140
2022-11-27T01:15:21.247Z,134
2022-11-27T01:17:51.835Z,160
2022-11-27T01:20:23.364Z,140
2022-11-27T01:22:54.691Z,139
2022-11-27T01:25:27.145Z,135
2022-11-27T01:27:56.204Z,153
2022-11-27T01:30:27.609Z,145
2022-11-27T01:32:58.669Z,144
2022-11-27T01:35:30.774Z,150
2022-11-27T01:38:00.381Z,153
2022-11-27T01:40:30.997Z,143
2022-11-27T01:43:02.178Z,136
2022-11-27T01:45:33.135Z,143
2022-11-27T01:48:04.626Z,144
2022-11-27T01:50:35.895Z,131
2022-11-27T01:53:06.706Z,136
2022-11-27T01:55:37.674Z,134
2022-11-27T01:58:08.421Z,152
2022-11-27T02:00:38.749Z,129
2022-11-27T02:03:09.636Z,126
2022-11-27T02:05:40.970Z,134
2022-11-27T02:08:11.521Z,125
2022-11-27T02:10:41.774Z,145
2022-11-27T02:13:12.361Z,136
2022-11-27T02:15:43.212Z,136
2022-11-27T02:18:13.795Z,140
2022-11-27T02:20:46.241Z,132
2022-11-27T02:23:14.981Z,132
2022-11-27T02:25:46.164Z,122
2022-11-27T02:28:16.939Z,127
2022-11-27T02:30:47.738Z,122
2022-11-27T02:33:18.381Z,124
2022-11-27T02:35:48.747Z,131
2022-11-27T02:38:18.991Z,127
2022-11-27T02:40:49.989Z,135
2022-11-27T02:43:22.091Z,142
2022-11-27T02:45:52.860Z,137
2022-11-27T02:48:23.921Z,130
2022-11-27T02:50:54.795Z,133
2022-11-27T02:53:26.035Z,133
2022-11-27T02:55:56.974Z,123
2022-11-27T02:58:29.148Z,129
2022-11-27T03:00:59.838Z,131
2022-11-27T03:03:31.881Z,127
2022-11-27T03:06:03.472Z,127
2022-11-27T03:08:34.302Z,131
2022-11-27T03:11:05.651Z,151
2022-11-27T03:13:36.466Z,129
2022-11-27T03:16:07.029Z,137
2022-11-27T03:18:37.451Z,126
2022-11-27T03:21:08.333Z,122
2022-11-27T03:23:39.009Z,125
2022-11-27T03:26:09.336Z,130
2022-11-27T03:28:40.436Z,137
2022-11-27T03:31:11.040Z,139
2022-11-27T03:33:41.903Z,154
2022-11-27T03:36:12.340Z,137
2022-11-27T03:38:43.077Z,146
2022-11-27T03:41:13.943Z,153
2022-11-27T03:43:44.932Z,142
2022-11-27T03:46:15.861Z,140
2022-11-27T03:48:46.308Z,152
2022-11-27T03:51:17.031Z,147
2022-11-27T03:53:48.445Z,138
2022-11-27T03:56:19.487Z,148
2022-11-27T03:58:50.823Z,149
2022-11-27T04:01:21.007Z,146
2022-11-27T04:03:52.212Z,151
2022-11-27T04:06:23.224Z,148
2022-11-27T04:08:54.406Z,137
2022-11-27T04:11:24.731Z,133
2022-11-27T04:13:55.414Z,147
2022-11-27T04:16:26.456Z,134
2022-11-27T04:18:57.436Z,140
2022-11-27T04:21:28.732Z,152
2022-11-27T04:24:00.093Z,141
2022-11-27T04:26:32.210Z,172
2022-11-27T04:29:03.626Z,149
2022-11-27T04:31:34.698Z,146
2022-11-27T04:34:06.430Z,141
2022-11-27T04:36:39.369Z,159
2022-11-27T04:39:07.744Z,162
2022-11-27T04:41:42.968Z,131
2022-11-27T04:44:13.280Z,131
2022-11-27T04:46:44.629Z,133
2022-11-27T04:49:15.197Z,133
2022-11-27T04:51:46.629Z,126
2022-11-27T04:54:18.010Z,132
2022-11-27T04:56:48.732Z,127
2022-11-27T04:59:19.435Z,130
2022-11-27T05:01:50.470Z,133
2022-11-27T05:04:21.424Z,129
2022-11-27T05:06:52.645Z,137
2022-11-27T05:09:23.265Z,124
2022-11-27T05:11:55.462Z,141
2022-11-27T05:14:32.223Z,132
2022-11-27T05:16:58.182Z,130
2022-11-27T05:19:28.808Z,130
2022-11-27T05:21:59.484Z,134
2022-11-27T05:24:30.830Z,112
2022-11-27T05:27:02.354Z,122
2022-11-27T05:29:33.530Z,138
2022-11-27T05:32:04.898Z,137
2022-11-27T05:34:36.162Z,111
2022-11-27T05:37:07.068Z,121
2022-11-27T05:39:38.105Z,125
2022-11-27T05:42:08.529Z,127
2022-11-27T05:44:39.725Z,110
2022-11-27T05:47:10.389Z,124
2022-11-27T05:49:41.418Z,125
2022-11-27T05:52:12.102Z,128
2022-11-27T05:54:43.832Z,127
2022-11-27T05:57:15.308Z,108
2022-11-27T05:59:46.221Z,106
2022-11-27T06:02:21.667Z,109
2022-11-27T06:04:47.179Z,110
2022-11-27T06:07:18.186Z,114
2022-11-27T06:09:48.963Z,135
2022-11-27T06:12:19.597Z,124
2022-11-27T06:14:50.681Z,144
2022-11-27T06:17:20.053Z,135
2022-11-27T06:19:54.728Z,118
2022-11-27T06:22:25.926Z,147
2022-11-27T06:24:56.658Z,129
2022-11-27T06:27:28.796Z,131
2022-11-27T06:29:59.207Z,151
2022-11-27T06:32:29.972Z,125
2022-11-27T06:35:00.454Z,112
2022-11-27T06:37:31.381Z,127
2022-11-27T06:40:00.408Z,117
2022-11-27T06:42:30.983Z,122
2022-11-27T06:45:01.805Z,141
2022-11-27T06:47:32.359Z,147
2022-11-27T06:50:03.746Z,116
2022-11-27T06:52:38.782Z,142
2022-11-27T06:55:05.338Z,128
2022-11-27T06:57:35.643Z,133
2022-11-27T07:00:06.401Z,126
2022-11-27T07:02:36.919Z,139
2022-11-27T07:05:07.519Z,139
2022-11-27T07:07:43.510Z,140
2022-11-27T07:10:09.516Z,126
2022-11-27T07:12:39.983Z,135
2022-11-27T07:15:11.449Z,127
2022-11-27T07:17:41.808Z,136
2022-11-27T07:20:17.396Z,120
2022-11-27T07:22:43.371Z,125
2022-11-27T07:25:13.986Z,130
2022-11-27T07:27:44.538Z,130
2022-11-27T07:30:15.117Z,130
2022-11-27T07:32:46.201Z,161
2022-11-27T07:35:16.915Z,134
2022-11-27T07:37:47.988Z,146
2022-11-27T07:40:22.106Z,138
2022-11-27T07:42:52.417Z,146
2022-11-27T07:45:23.777Z,136
2022-11-27T07:47:54.447Z,150
2022-11-27T07:50:25.219Z,155
2022-11-27T07:52:55.969Z,139
2022-11-27T07:55:27.250Z,148
2022-11-27T07:57:58.214Z,150
2022-11-27T08:00:29.343Z,149
2022-11-27T08:02:59.754Z,158
2022-11-27T08:05:31.067Z,133
2022-11-27T08:08:01.815Z,131
2022-11-27T08:10:32.291Z,157
2022-11-27T08:13:03.021Z,141
2022-11-27T08:15:33.890Z,129
2022-11-27T08:18:04.587Z,133
2022-11-27T08:20:35.503Z,124
2022-11-27T08:23:06.730Z,126
2022-11-27T08:25:37.330Z,134
2022-11-27T08:28:08.181Z,105
2022-11-27T08:30:39.236Z,133
2022-11-27T08:33:10.230Z,135
2022-11-27T08:35:41.012Z,133
2022-11-27T08:38:11.990Z,130
2022-11-27T08:40:42.132Z,174
2022-11-27T08:43:13.777Z,163
2022-11-27T08:45:44.888Z,371
2022-11-27T08:48:15.466Z,118
2022-11-27T08:50:46.842Z,128
2022-11-27T08:53:18.293Z,92
2022-11-27T08:55:48.777Z,124
2022-11-27T08:58:20.518Z,117
2022-11-27T09:00:51.665Z,116
2022-11-27T09:03:24.029Z,117
2022-11-27T09:05:56.702Z,171
2022-11-27T09:08:28.307Z,168
2022-11-27T09:10:59.874Z,171
2022-11-27T09:13:31.053Z,133
2022-11-27T09:16:02.347Z,128
2022-11-27T09:18:33.306Z,118
2022-11-27T09:21:04.916Z,142
2022-11-27T09:23:36.144Z,132
2022-11-27T09:26:07.900Z,109
2022-11-27T09:28:38.716Z,125
2022-11-27T09:31:09.624Z,99
2022-11-27T09:33:41.161Z,92
2022-11-27T09:36:12.498Z,96
2022-11-27T09:38:44.397Z,107
2022-11-27T09:41:15.597Z,133
2022-11-27T09:43:46.945Z,101
2022-11-27T09:46:18.004Z,122
2022-11-27T09:48:49.389Z,104
2022-11-27T09:51:20.892Z,96
2022-11-27T09:53:52.791Z,96
2022-11-27T09:56:23.767Z,102
2022-11-27T09:58:55.201Z,96
2022-11-27T10:01:32.377Z,119
2022-11-27T10:03:58.561Z,102
2022-11-27T10:06:29.629Z,130
2022-11-27T10:08:59.399Z,171
2022-11-27T10:11:30.157Z,147
2022-11-27T10:14:01.314Z,134
2022-11-27T10:16:32.465Z,151
2022-11-27T10:19:05.125Z,171
2022-11-27T10:21:37.308Z,147
2022-11-27T10:24:08.647Z,203
2022-11-27T10:26:39.441Z,174
2022-11-27T10:29:10.949Z,138
2022-11-27T10:31:43.282Z,129
2022-11-27T10:34:14.635Z,134
2022-11-27T10:36:45.398Z,127
2022-11-27T10:39:16.566Z,223
2022-11-27T10:41:49.879Z,174
2022-11-27T10:44:18.897Z,108
2022-11-27T10:46:50.431Z,152
2022-11-27T10:49:22.333Z,120
2022-11-27T10:51:54.014Z,107
2022-11-27T10:54:25.633Z,107
2022-11-27T10:56:56.744Z,88
2022-11-27T10:59:31.435Z,102
2022-11-27T11:01:59.230Z,109
2022-11-27T11:04:38.845Z,100
2022-11-27T11:07:01.830Z,96
2022-11-27T11:09:33.298Z,96
2022-11-27T11:12:04.566Z,124
2022-11-27T11:14:35.722Z,128
2022-11-27T11:17:07.174Z,140
2022-11-27T11:19:38.277Z,112
2022-11-27T11:22:13.253Z,104
2022-11-27T11:24:40.547Z,112
2022-11-27T11:27:11.583Z,124
2022-11-27T11:29:42.437Z,128
2022-11-27T11:32:13.845Z,124
2022-11-27T11:34:44.793Z,112
2022-11-27T11:37:15.788Z,112
2022-11-27T11:39:46.842Z,149
2022-11-27T11:42:18.828Z,114
2022-11-27T11:44:49.927Z,103
2022-11-27T11:47:20.965Z,121
2022-11-27T11:49:52.032Z,125
2022-11-27T11:52:23.074Z,138
2022-11-27T11:54:54.488Z,130
2022-11-27T11:57:25.440Z,134
2022-11-27T11:59:58.125Z,139
2022-11-27T12:02:29.332Z,128
2022-11-27T12:05:00.314Z,135
2022-11-27T12:07:32.046Z,137
2022-11-27T12:10:03.619Z,155
2022-11-27T12:12:34.361Z,159
2022-11-27T12:15:05.577Z,157
2022-11-27T12:17:37.191Z,133
2022-11-27T12:20:08.162Z,151
2022-11-27T12:22:39.252Z,153
2022-11-27T12:25:10.353Z,126
2022-11-27T12:27:41.263Z,139
2022-11-27T12:30:12.318Z,145
2022-11-27T12:32:43.800Z,146
2022-11-27T12:35:14.662Z,143
2022-11-27T12:37:45.748Z,156
2022-11-27T12:40:22.452Z,143
2022-11-27T12:42:48.119Z,152
2022-11-27T12:45:19.281Z,142
2022-11-27T12:47:50.023Z,154
2022-11-27T12:50:21.105Z,147
2022-11-27T12:52:52.412Z,145
2022-11-27T12:55:23.760Z,141
2022-11-27T12:57:54.785Z,131
2022-11-27T13:00:25.644Z,122
2022-11-27T13:02:57.015Z,125
2022-11-27T13:05:28.519Z,135
2022-11-27T13:07:59.643Z,124
2022-11-27T13:10:30.345Z,116
2022-11-27T13:13:01.816Z,104
2022-11-27T13:15:32.662Z,132
2022-11-27T13:18:03.771Z,97
2022-11-27T13:20:35.083Z,117
2022-11-27T13:23:06.255Z,115
2022-11-27T13:25:37.751Z,112
2022-11-27T13:28:09.101Z,110
2022-11-27T13:30:40.439Z,111
2022-11-27T13:33:11.689Z,120
2022-11-27T13:35:43.787Z,98
2022-11-27T13:38:14.881Z,102
2022-11-27T13:40:45.780Z,101
2022-11-27T13:43:17.128Z,106
2022-11-27T13:45:49.331Z,100
2022-11-27T13:48:20.173Z,98
2022-11-27T13:50:51.186Z,106
2022-11-27T13:53:21.842Z,124
2022-11-27T13:55:52.980Z,127
2022-11-27T13:58:24.221Z,97
2022-11-27T14:00:55.473Z,99
2022-11-27T14:03:26.999Z,111
2022-11-27T14:05:58.121Z,103
2022-11-27T14:08:29.637Z,106
2022-11-27T14:11:00.923Z,94
2022-11-27T14:13:32.300Z,93
2022-11-27T14:16:04.205Z,102
2022-11-27T14:18:35.318Z,100
2022-11-27T14:21:06.762Z,104
2022-11-27T14:23:37.942Z,96
2022-11-27T14:26:13.524Z,97
2022-11-27T14:28:46.629Z,98
2022-11-27T14:31:12.456Z,113
2022-11-27T14:33:59.983Z,93
2022-11-27T14:36:14.771Z,92
2022-11-27T14:38:46.196Z,92
2022-11-27T14:41:17.490Z,98
2022-11-27T14:43:48.550Z,91
2022-11-27T14:46:19.756Z,96
2022-11-27T14:48:50.388Z,100
2022-11-27T14:51:21.332Z,96
2022-11-27T14:53:53.622Z,99
2022-11-27T14:56:24.395Z,96
2022-11-27T14:58:55.432Z,92
2022-11-27T15:01:28.457Z,99
2022-11-27T15:04:01.464Z,91
2022-11-27T15:06:32.977Z,86
2022-11-27T15:09:30.067Z,84
2022-11-27T15:11:54.928Z,90
2022-11-27T15:14:07.967Z,87
2022-11-27T15:16:39.555Z,113
2022-11-27T15:19:11.363Z,126
2022-11-27T15:21:42.603Z,99
2022-11-27T15:24:13.956Z,94
2022-11-27T15:26:44.645Z,92
2022-11-27T15:29:15.971Z,122
2022-11-27T15:31:46.908Z,117
2022-11-27T15:34:18.088Z,138
2022-11-27T15:36:48.993Z,115
2022-11-27T15:39:20.015Z,97
2022-11-27T15:41:51.551Z,112
2022-11-27T15:44:22.661Z,231
2022-11-27T15:46:53.541Z,97
2022-11-27T15:49:24.216Z,96
2022-11-27T15:51:55.347Z,100
2022-11-27T15:54:24.825Z,180
2022-11-27T15:56:55.781Z,112
2022-11-27T15:59:27.035Z,90
2022-11-27T16:01:58.746Z,102
2022-11-27T16:04:29.217Z,109
2022-11-27T16:07:00.490Z,117
2022-11-27T16:09:31.378Z,98
2022-11-27T16:12:02.322Z,87
2022-11-27T16:14:33.010Z,90
2022-11-27T16:17:04.200Z,87
2022-11-27T16:19:35.385Z,97
2022-11-27T16:22:06.882Z,96
2022-11-27T16:24:37.626Z,88
2022-11-27T16:27:07.101Z,90
2022-11-27T16:29:37.816Z,91
2022-11-27T16:32:08.837Z,95
2022-11-27T16:34:39.386Z,88
2022-11-27T16:37:14.345Z,92
2022-11-27T16:39:41.783Z,110
2022-11-27T16:42:13.440Z,100
2022-11-27T16:44:44.866Z,99
2022-11-27T16:47:16.355Z,95
2022-11-27T16:49:47.201Z,92
2022-11-27T16:52:18.730Z,108
2022-11-27T16:54:49.481Z,93
2022-11-27T16:57:22.760Z,90
2022-11-27T16:59:53.772Z,95
2022-11-27T17:02:28.278Z,84
2022-11-27T17:04:59.315Z,89
2022-11-27T17:07:30.612Z,100
2022-11-27T17:10:00.834Z,111
2022-11-27T17:12:32.152Z,112
2022-11-27T17:15:01.562Z,104
2022-11-27T17:17:36.863Z,92
2022-11-27T17:20:04.322Z,96
2022-11-27T17:22:35.240Z,114
2022-11-27T17:25:05.947Z,110
2022-11-27T17:27:35.312Z,97
2022-11-27T17:30:06.131Z,92
2022-11-27T17:32:41.687Z,101
2022-11-27T17:35:12.338Z,101
2022-11-27T17:37:44.720Z,92
2022-11-27T17:40:15.473Z,99
2022-11-27T17:42:47.249Z,93
2022-11-27T17:45:18.936Z,97
2022-11-27T17:47:49.909Z,98
2022-11-27T17:50:19.314Z,101
2022-11-27T17:52:50.471Z,101
2022-11-27T17:55:21.255Z,114
2022-11-27T17:57:52.171Z,96
2022-11-27T18:00:23.715Z,93
2022-11-27T18:02:54.919Z,93
2022-11-27T18:05:26.021Z,87
2022-11-27T18:07:57.198Z,90
2022-11-27T18:10:28.506Z,100
2022-11-27T18:12:59.124Z,95
2022-11-27T18:15:29.898Z,96
2022-11-27T18:18:01.896Z,92
2022-11-27T18:20:33.187Z,97
2022-11-27T18:23:04.917Z,96
2022-11-27T18:25:36.425Z,98
2022-11-27T18:28:07.498Z,96
2022-11-27T18:30:38.586Z,87
2022-11-27T18:33:12.532Z,100
2022-11-27T18:35:48.439Z,97
2022-11-27T18:38:19.543Z,96
2022-11-27T18:40:51.324Z,104
2022-11-27T18:43:22.261Z,101
2022-11-27T18:45:53.717Z,102
2022-11-27T18:48:25.051Z,99
2022-11-27T18:50:56.113Z,104
2022-11-27T18:53:27.379Z,97
2022-11-27T18:55:58.532Z,92
2022-11-27T18:58:30.618Z,100
2022-11-27T19:01:01.778Z,95
2022-11-27T19:03:33.098Z,108
2022-11-27T19:06:04.033Z,101
2022-11-27T19:08:35.258Z,96
2022-11-27T19:11:06.517Z,96
2022-11-27T19:13:37.354Z,103
2022-11-27T19:16:08.224Z,95
2022-11-27T19:18:42.335Z,104
2022-11-27T19:21:13.631Z,108
2022-11-27T19:23:45.150Z,124
2022-11-27T19:26:17.035Z,116
2022-11-27T19:28:47.890Z,110
2022-11-27T19:31:18.810Z,108
2022-11-27T19:33:49.748Z,117
2022-11-27T19:36:20.378Z,113
2022-11-27T19:38:54.326Z,114
2022-11-27T19:41:25.909Z,126
2022-11-27T19:43:57.607Z,104
2022-11-27T19:46:29.540Z,107
2022-11-27T19:49:00.487Z,139
2022-11-27T19:51:33.460Z,123
2022-11-27T19:54:07.035Z,130
2022-11-27T19:56:35.373Z,127
2022-11-27T19:59:07.818Z,127
2022-11-27T20:01:38.694Z,128
2022-11-27T20:04:10.178Z,159
2022-11-27T20:06:41.015Z,128
2022-11-27T20:09:12.063Z,145
2022-11-27T20:11:43.515Z,143
2022-11-27T20:14:14.776Z,145
2022-11-27T20:16:47.064Z,123
2022-11-27T20:19:18.055Z,130
2022-11-27T20:21:49.097Z,136
2022-11-27T20:24:20.366Z,143
2022-11-27T20:26:51.121Z,137
2022-11-27T20:29:22.261Z,161
2022-11-27T20:31:53.366Z,128
2022-11-27T20:34:24.921Z,159
2022-11-27T20:36:56.615Z,159
2022-11-27T20:39:27.434Z,124
2022-11-27T20:41:58.621Z,123
2022-11-27T20:44:29.815Z,141
2022-11-27T20:47:00.457Z,165
2022-11-27T20:49:32.033Z,166
2022-11-27T20:52:02.921Z,129
2022-11-27T20:54:34.417Z,122
2022-11-27T20:57:05.319Z,104
2022-11-27T20:59:37.243Z,101
2022-11-27T21:02:09.387Z,97
2022-11-27T21:04:40.610Z,100
2022-11-27T21:07:12.696Z,117
2022-11-27T21:09:44.781Z,108
2022-11-27T21:12:15.903Z,101
2022-11-27T21:14:47.848Z,111
2022-11-27T21:17:18.953Z,128
2022-11-27T21:19:50.291Z,104
2022-11-27T21:22:22.027Z,103
2022-11-27T21:24:54.380Z,116
2022-11-27T21:27:25.629Z,110
2022-11-27T21:29:56.509Z,101
2022-11-27T21:32:28.643Z,122
2022-11-27T21:34:59.444Z,105
2022-11-27T21:37:30.227Z,102
2022-11-27T21:40:01.609Z,110
2022-11-27T21:42:32.668Z,104
2022-11-27T21:45:03.605Z,116
2022-11-27T21:47:34.445Z,107
2022-11-27T21:50:05.752Z,106
2022-11-27T21:52:36.781Z,97
2022-11-27T21:55:11.757Z,99
2022-11-27T21:57:39.458Z,99
2022-11-27T22:00:11.695Z,100
2022-11-27T22:02:42.376Z,101
2022-11-27T22:05:14.906Z,97
2022-11-27T22:07:46.653Z,106
2022-11-27T22:10:18.232Z,111
2022-11-27T22:12:49.701Z,109
2022-11-27T22:15:20.715Z,95
2022-11-27T22:17:51.817Z,110
2022-11-27T22:20:23.911Z,126
2022-11-27T22:22:55.031Z,133
2022-11-27T22:25:27.493Z,105
2022-11-27T22:27:58.693Z,119
2022-11-27T22:30:29.656Z,132
2022-11-27T22:33:00.694Z,130
2022-11-27T22:35:31.747Z,150
2022-11-27T22:38:03.236Z,139
2022-11-27T22:40:34.477Z,107
2022-11-27T22:43:05.769Z,119
2022-11-27T22:45:37.134Z,108
2022-11-27T22:48:08.141Z,99
2022-11-27T22:50:39.444Z,109
2022-11-27T22:53:10.383Z,101
2022-11-27T22:55:41.593Z,113
2022-11-27T22:58:17.032Z,110
2022-11-27T23:00:48.017Z,108
2022-11-27T23:03:17.256Z,102
2022-11-27T23:05:47.756Z,104
2022-11-27T23:08:18.315Z,104
2022-11-27T23:10:47.962Z,101
2022-11-27T23:13:18.255Z,105
2022-11-27T23:15:49.407Z,102
2022-11-27T23:18:20.640Z,107
2022-11-27T23:20:50.999Z,101
2022-11-27T23:23:22.220Z,105
2022-11-27T23:25:52.733Z,100
2022-11-27T23:28:23.793Z,99
2022-11-27T23:31:08.974Z,101
2022-11-27T23:33:25.700Z,98
2022-11-27T23:35:58.796Z,95
2022-11-27T23:38:29.730Z,103
2022-11-27T23:41:01.350Z,98
2022-11-27T23:43:32.558Z,109
2022-11-27T23:46:03.516Z,99
2022-11-27T23:48:34.280Z,109
2022-11-27T23:51:05.102Z,97
2022-11-27T23:53:35.883Z,97
2022-11-27T23:56:06.597Z,92
2022-11-27T23:58:38.682Z,100
